Time;durP1;ratioP1;P1;durP2;ratioP2;P2;SDS_P1;SDS_P2;PMS_P1;PMS_P2;Temp;Humidity;BMP_temperature;BMP_pressure;BME280_temperature;BME280_humidity;BME280_pressure;Samples;Min_cycle;Max_cycle;Signal;HPM_P1;HPM_P2
2023/09/01 00:00:41;;;;;;;0.60;0.60;;;11.40;99.90;11.30;100343.00;;;;5025395;27;111198;-65
2023/09/01 00:03:08;;;;;;;0.90;0.80;;;11.40;99.90;11.30;100339.00;;;;5024646;27;88601;-65
2023/09/01 00:05:34;;;;;;;0.60;0.57;;;11.30;99.90;11.20;100332.00;;;;5026375;27;88479;-65
2023/09/01 00:08:00;;;;;;;0.50;0.50;;;11.30;99.90;11.20;100344.00;;;;5025590;27;89022;-65
2023/09/01 00:10:26;;;;;;;0.70;0.70;;;11.30;99.90;11.20;100352.00;;;;5030270;27;103730;-65
2023/09/01 00:12:51;;;;;;;0.67;0.60;;;11.20;99.90;11.20;100342.00;;;;5021787;27;118848;-64
2023/09/01 00:15:17;;;;;;;0.40;0.40;;;11.20;99.90;11.20;100349.00;;;;5024325;27;108376;-65
2023/09/01 00:17:43;;;;;;;1.23;0.90;;;11.20;99.90;11.20;100347.00;;;;5023958;27;87934;-64
2023/09/01 00:20:10;;;;;;;1.53;0.60;;;11.20;99.90;11.20;100348.00;;;;5021456;27;117108;-65
2023/09/01 00:22:35;;;;;;;0.77;0.70;;;11.20;99.90;11.10;100337.00;;;;5024227;27;88441;-65
2023/09/01 00:25:03;;;;;;;1.33;1.13;;;11.20;99.90;11.10;100344.00;;;;5024913;27;108357;-65
2023/09/01 00:27:31;;;;;;;1.00;0.70;;;11.10;99.90;11.10;100345.00;;;;5023481;27;86899;-65
2023/09/01 00:29:57;;;;;;;0.53;0.53;;;11.20;99.90;11.10;100343.00;;;;5024765;27;117092;-66
2023/09/01 00:32:22;;;;;;;1.20;0.80;;;11.20;99.90;11.10;100356.00;;;;5024684;27;119029;-65
2023/09/01 00:34:56;;;;;;;2.43;0.80;;;11.20;99.90;11.10;100352.00;;;;5024323;27;108542;-65
2023/09/01 00:37:23;;;;;;;0.80;0.80;;;11.10;99.90;11.10;100345.00;;;;5026430;27;87864;-65
2023/09/01 00:39:49;;;;;;;0.63;0.63;;;11.10;99.90;11.10;100351.00;;;;5023484;27;109338;-65
2023/09/01 00:42:14;;;;;;;2.00;0.93;;;11.10;99.90;11.10;100347.00;;;;5023708;27;116819;-65
2023/09/01 00:44:40;;;;;;;1.43;1.33;;;11.10;99.90;11.10;100349.00;;;;5027295;27;109888;-65
2023/09/01 00:47:06;;;;;;;0.87;0.80;;;11.10;99.90;11.10;100336.00;;;;5021696;27;108698;-65
2023/09/01 00:49:32;;;;;;;1.07;0.43;;;11.10;99.90;11.10;100349.00;;;;5024923;27;104542;-65
2023/09/01 00:51:59;;;;;;;0.50;0.50;;;11.10;99.90;11.10;100348.00;;;;5006334;27;88349;-65
2023/09/01 00:54:25;;;;;;;3.87;1.43;;;11.10;99.90;11.10;100352.00;;;;5025036;27;109856;-65
2023/09/01 00:56:56;;;;;;;0.43;0.43;;;11.10;99.90;11.00;100347.00;;;;5027353;27;87976;-66
2023/09/01 00:59:23;;;;;;;1.43;0.70;;;11.10;99.90;11.00;100346.00;;;;5026332;27;89313;-66
2023/09/01 01:02:04;;;;;;;0.97;0.97;;;11.10;99.90;11.00;100345.00;;;;5026383;27;109720;-66
2023/09/01 01:04:31;;;;;;;0.63;0.63;;;11.10;99.90;11.00;100347.00;;;;5018104;27;88125;-65
2023/09/01 01:07:31;;;;;;;0.50;0.50;;;11.10;99.90;11.00;100350.00;;;;5026770;27;87522;-66
2023/09/01 01:10:04;;;;;;;0.90;0.67;;;11.10;99.90;11.00;100345.00;;;;5029222;27;87812;-65
2023/09/01 01:12:52;;;;;;;1.63;1.00;;;11.00;99.90;10.90;100347.00;;;;5026438;27;89498;-65
2023/09/01 01:15:19;;;;;;;0.90;0.90;;;11.00;99.90;10.90;100342.00;;;;5014425;27;87940;-65
2023/09/01 01:17:46;;;;;;;0.60;0.60;;;11.00;99.90;10.90;100335.00;;;;5016498;27;102538;-65
2023/09/01 01:20:34;;;;;;;0.90;0.73;;;10.90;99.90;10.80;100342.00;;;;5025670;27;88336;-65
2023/09/01 01:23:17;;;;;;;0.80;0.80;;;10.90;99.90;10.80;100339.00;;;;5022893;27;109478;-65
2023/09/01 01:25:53;;;;;;;0.83;0.77;;;10.80;99.90;10.70;100341.00;;;;5025368;27;89076;-65
2023/09/01 01:28:20;;;;;;;0.77;0.70;;;10.80;99.90;10.70;100335.00;;;;5022251;27;108262;-66
2023/09/01 01:30:48;;;;;;;0.87;0.87;;;10.80;99.90;10.70;100335.00;;;;5028432;27;87986;-65
2023/09/01 01:33:47;;;;;;;1.43;0.70;;;10.70;99.90;10.60;100317.00;;;;5006445;27;109483;-65
2023/09/01 01:36:38;;;;;;;0.40;0.40;;;10.70;99.90;10.50;100324.00;;;;5022900;27;100905;-65
2023/09/01 01:39:09;;;;;;;1.17;0.97;;;10.70;99.90;10.50;100318.00;;;;5022216;27;87921;-65
2023/09/01 01:41:53;;;;;;;2.63;1.20;;;10.60;99.90;10.50;100326.00;;;;5023504;27;106085;-65
2023/09/01 01:44:25;;;;;;;1.33;1.23;;;10.60;99.90;10.50;100321.00;;;;5028029;27;88755;-65
2023/09/01 01:46:52;;;;;;;1.10;1.00;;;10.60;99.90;10.50;100317.00;;;;4991317;27;102882;-65
2023/09/01 01:49:19;;;;;;;1.43;1.33;;;10.50;99.90;10.40;100308.00;;;;5023315;27;87893;-65
2023/09/01 01:51:45;;;;;;;1.63;1.47;;;10.50;99.90;10.40;100319.00;;;;5023824;27;91023;-65
2023/09/01 01:54:11;;;;;;;0.80;0.80;;;10.50;99.90;10.40;100307.00;;;;5021497;27;107505;-66
2023/09/01 01:56:37;;;;;;;0.87;0.87;;;10.40;99.90;10.30;100303.00;;;;5023941;27;89270;-65
2023/09/01 01:59:04;;;;;;;1.23;0.80;;;10.40;99.90;10.30;100316.00;;;;5022155;27;109467;-66
2023/09/01 02:01:31;;;;;;;1.00;0.90;;;10.40;99.90;10.30;100313.00;;;;5025863;27;88021;-66
2023/09/01 02:03:57;;;;;;;1.40;1.10;;;10.30;99.90;10.20;100307.00;;;;5009682;27;89979;-67
2023/09/01 02:06:23;;;;;;;1.17;0.90;;;10.30;99.90;10.20;100304.00;;;;4991336;27;88100;-66
2023/09/01 02:08:49;;;;;;;1.17;1.07;;;10.30;99.90;10.20;100311.00;;;;5023775;27;97859;-66
2023/09/01 02:11:18;;;;;;;0.60;0.60;;;10.30;99.90;10.20;100309.00;;;;5025306;27;117056;-66
2023/09/01 02:13:44;;;;;;;0.93;0.87;;;10.30;99.90;10.20;100315.00;;;;5021687;27;117644;-66
2023/09/01 02:16:15;;;;;;;0.93;0.93;;;10.20;99.90;10.20;100317.00;;;;5023866;27;109929;-67
2023/09/01 02:18:41;;;;;;;0.97;0.97;;;10.30;99.90;10.10;100322.00;;;;5022073;27;87860;-66
2023/09/01 02:21:07;;;;;;;2.40;1.10;;;10.20;99.90;10.10;100333.00;;;;5024527;27;88997;-66
2023/09/01 02:23:33;;;;;;;1.13;0.90;;;10.20;99.90;10.10;100324.00;;;;5023242;27;117601;-65
2023/09/01 02:25:58;;;;;;;1.17;1.07;;;10.20;99.90;10.10;100324.00;;;;5024648;27;109916;-65
2023/09/01 02:28:24;;;;;;;0.77;0.77;;;10.20;99.90;10.10;100330.00;;;;5025332;27;88103;-65
2023/09/01 02:30:50;;;;;;;0.87;0.87;;;10.10;99.90;10.00;100335.00;;;;5028414;27;88911;-65
2023/09/01 02:33:15;;;;;;;1.20;1.10;;;10.10;99.90;10.00;100337.00;;;;5022875;27;118257;-65
2023/09/01 02:35:44;;;;;;;1.80;1.23;;;10.10;99.90;10.00;100339.00;;;;5025285;27;87708;-66
2023/09/01 02:38:11;;;;;;;1.83;1.23;;;10.10;99.90;10.00;100335.00;;;;5024562;27;88107;-65
2023/09/01 02:40:38;;;;;;;1.23;1.00;;;10.10;99.90;10.00;100338.00;;;;5021838;27;89787;-67
2023/09/01 02:43:04;;;;;;;0.80;0.63;;;10.10;99.90;10.00;100340.00;;;;5023012;27;89061;-65
2023/09/01 02:45:30;;;;;;;1.87;1.27;;;10.00;99.90;9.90;100346.00;;;;5020907;27;111015;-66
2023/09/01 02:47:57;;;;;;;0.97;0.73;;;10.00;99.90;9.90;100356.00;;;;5019264;27;87914;-66
2023/09/01 02:50:22;;;;;;;0.73;0.73;;;10.00;99.90;9.90;100355.00;;;;5022530;27;88986;-66
2023/09/01 02:52:48;;;;;;;1.47;1.37;;;10.00;99.90;9.90;100360.00;;;;5027035;27;88134;-65
2023/09/01 02:55:17;;;;;;;3.47;1.70;;;9.90;99.90;9.90;100356.00;;;;5028261;27;88684;-66
2023/09/01 02:57:46;;;;;;;0.90;0.90;;;9.90;99.90;9.90;100353.00;;;;5026468;27;87277;-66
2023/09/01 03:00:18;;;;;;;1.03;0.80;;;9.90;99.90;9.80;100347.00;;;;5025864;27;98527;-66
2023/09/01 03:02:44;;;;;;;1.70;0.93;;;10.00;99.90;9.80;100340.00;;;;5028127;27;88386;-65
2023/09/01 03:05:10;;;;;;;1.77;1.40;;;9.90;99.90;9.80;100344.00;;;;5025281;27;88841;-65
2023/09/01 03:07:38;;;;;;;1.10;1.00;;;9.90;99.90;9.80;100338.00;;;;5025034;27;109011;-66
2023/09/01 03:10:07;;;;;;;1.10;1.00;;;9.90;99.90;9.80;100354.00;;;;5029032;27;90214;-67
2023/09/01 03:12:39;;;;;;;0.93;0.87;;;10.30;99.90;9.80;100351.00;;;;5013824;27;88397;-65
2023/09/01 03:15:09;;;;;;;1.10;1.00;;;9.80;99.90;9.80;100342.00;;;;5025469;27;87538;-66
2023/09/01 03:17:35;;;;;;;2.77;1.83;;;9.90;99.90;9.80;100344.00;;;;5029795;27;89347;-66
2023/09/01 03:20:03;;;;;;;1.07;0.63;;;9.80;99.90;9.80;100341.00;;;;5024323;27;91080;-66
2023/09/01 03:22:29;;;;;;;1.47;1.00;;;9.80;99.90;9.80;100338.00;;;;5024945;27;87568;-65
2023/09/01 03:24:54;;;;;;;1.27;1.17;;;9.80;99.90;9.80;100337.00;;;;5028601;27;87868;-66
2023/09/01 03:27:26;;;;;;;1.23;1.13;;;9.80;99.90;9.80;100347.00;;;;5028095;27;89720;-66
2023/09/01 03:29:56;;;;;;;0.80;0.80;;;9.90;99.90;9.80;100337.00;;;;5026439;27;89833;-66
2023/09/01 03:32:22;;;;;;;1.07;0.73;;;9.90;99.90;9.80;100335.00;;;;5028794;27;106443;-66
2023/09/01 03:34:48;;;;;;;1.30;1.20;;;9.80;99.90;9.70;100332.00;;;;5029821;27;88683;-67
2023/09/01 03:37:13;;;;;;;1.63;1.23;;;9.80;99.90;9.70;100340.00;;;;5026418;27;87844;-66
2023/09/01 03:39:39;;;;;;;0.90;0.90;;;9.80;99.90;9.70;100346.00;;;;5025250;27;105988;-66
2023/09/01 03:42:05;;;;;;;1.13;0.97;;;9.80;99.90;9.70;100337.00;;;;5021916;27;117495;-66
2023/09/01 03:44:31;;;;;;;1.13;0.90;;;9.80;99.90;9.70;100336.00;;;;5026420;27;110088;-66
2023/09/01 03:46:58;;;;;;;1.00;0.90;;;9.70;99.90;9.70;100342.00;;;;5026582;27;105124;-66
2023/09/01 03:49:26;;;;;;;1.37;0.93;;;9.70;99.90;9.70;100343.00;;;;5026140;27;88655;-66
2023/09/01 03:51:52;;;;;;;1.60;1.00;;;9.70;99.90;9.70;100350.00;;;;5024748;27;87712;-66
2023/09/01 03:54:17;;;;;;;1.63;1.13;;;9.70;99.90;9.70;100348.00;;;;5025751;27;110460;-66
2023/09/01 03:56:43;;;;;;;1.20;0.90;;;9.70;99.90;9.70;100340.00;;;;5028167;27;108842;-65
2023/09/01 03:59:09;;;;;;;3.53;1.10;;;9.70;99.90;9.70;100342.00;;;;5033081;27;88514;-65
2023/09/01 04:01:35;;;;;;;0.63;0.63;;;9.70;99.90;9.60;100346.00;;;;5029291;27;117452;-66
2023/09/01 04:04:01;;;;;;;2.17;0.83;;;9.70;99.90;9.60;100349.00;;;;5027432;27;87956;-67
2023/09/01 04:06:27;;;;;;;2.60;1.37;;;9.70;99.90;9.60;100350.00;;;;5027362;27;88086;-67
2023/09/01 04:08:52;;;;;;;1.00;0.90;;;9.70;99.90;9.70;100354.00;;;;5023316;27;116759;-67
2023/09/01 04:11:18;;;;;;;1.33;1.23;;;9.70;99.90;9.60;100352.00;;;;5026447;27;117220;-67
2023/09/01 04:13:44;;;;;;;1.40;0.87;;;9.70;99.90;9.70;100359.00;;;;5027089;27;109049;-67
2023/09/01 04:16:09;;;;;;;1.33;1.13;;;9.70;99.90;9.70;100354.00;;;;5024985;27;109541;-67
2023/09/01 04:18:35;;;;;;;2.33;1.47;;;9.70;99.90;9.70;100357.00;;;;5028623;27;88848;-66
2023/09/01 04:21:01;;;;;;;1.07;1.03;;;9.70;99.90;9.70;100346.00;;;;5027246;27;116858;-67
2023/09/01 04:23:27;;;;;;;1.63;1.43;;;9.70;99.90;9.70;100347.00;;;;5029646;27;91052;-66
2023/09/01 04:25:53;;;;;;;1.33;1.17;;;9.70;99.90;9.70;100360.00;;;;5032834;27;87928;-67
2023/09/01 04:28:19;;;;;;;2.03;1.50;;;9.80;99.90;9.70;100358.00;;;;5026439;27;108032;-66
2023/09/01 04:30:48;;;;;;;1.70;1.60;;;9.80;99.90;9.80;100352.00;;;;5027960;27;88117;-66
2023/09/01 04:33:13;;;;;;;1.10;1.00;;;9.80;99.90;9.80;100346.00;;;;5027916;27;87917;-66
2023/09/01 04:35:39;;;;;;;1.47;1.00;;;9.80;99.90;9.90;100355.00;;;;5021444;27;108893;-66
2023/09/01 04:38:05;;;;;;;2.60;1.53;;;9.90;99.90;9.90;100350.00;;;;5018292;27;110804;-66
2023/09/01 04:40:31;;;;;;;2.10;1.47;;;9.90;99.90;9.90;100349.00;;;;5026239;27;88044;-66
2023/09/01 04:42:57;;;;;;;1.70;1.50;;;10.00;99.90;10.00;100349.00;;;;5020083;27;110393;-66
2023/09/01 04:45:22;;;;;;;1.50;1.30;;;10.00;99.90;10.00;100346.00;;;;5023453;27;109253;-68
2023/09/01 04:47:50;;;;;;;3.67;1.97;;;9.70;99.90;10.10;100350.00;;;;5019682;27;103255;-67
2023/09/01 04:50:16;;;;;;;1.83;1.73;;;10.10;99.90;10.10;100357.00;;;;5017757;27;108306;-67
2023/09/01 04:52:41;;;;;;;2.57;1.93;;;10.20;99.90;10.20;100357.00;;;;5027150;27;87831;-67
2023/09/01 04:55:08;;;;;;;1.23;1.03;;;10.20;99.90;10.30;100358.00;;;;5023729;27;108087;-67
2023/09/01 04:57:35;;;;;;;1.37;1.27;;;10.30;99.90;10.40;100358.00;;;;5027181;27;88806;-67
2023/09/01 05:00:02;;;;;;;1.47;1.20;;;10.30;99.90;10.40;100367.00;;;;5024716;27;88990;-67
2023/09/01 05:02:27;;;;;;;1.70;1.60;;;10.50;99.90;10.50;100368.00;;;;5024879;27;87860;-68
2023/09/01 05:04:53;;;;;;;1.90;1.70;;;10.50;99.90;10.60;100365.00;;;;5023927;27;108750;-67
2023/09/01 05:07:19;;;;;;;2.30;1.90;;;10.60;99.90;10.70;100368.00;;;;5023288;27;89272;-67
2023/09/01 05:09:44;;;;;;;1.60;1.47;;;10.70;99.90;10.80;100357.00;;;;5022262;27;118706;-67
2023/09/01 05:12:10;;;;;;;1.77;1.37;;;10.80;99.90;10.80;100376.00;;;;5022144;27;87930;-66
2023/09/01 05:14:35;;;;;;;3.40;1.60;;;10.80;99.90;10.90;100365.00;;;;5020816;27;107210;-67
2023/09/01 05:17:02;;;;;;;1.50;1.40;;;10.90;99.90;11.00;100377.00;;;;5025574;27;117161;-67
2023/09/01 05:19:27;;;;;;;1.93;1.80;;;11.20;99.90;11.20;100374.00;;;;5024658;27;88040;-67
2023/09/01 05:21:54;;;;;;;2.57;1.60;;;11.20;99.90;11.30;100379.00;;;;5024784;27;103950;-67
2023/09/01 05:24:20;;;;;;;7.33;1.83;;;11.30;99.90;11.40;100376.00;;;;5023661;27;87497;-66
2023/09/01 05:26:45;;;;;;;2.20;2.00;;;11.40;99.90;11.50;100381.00;;;;5026595;27;118274;-66
2023/09/01 05:29:11;;;;;;;3.17;2.07;;;11.50;99.90;11.70;100380.00;;;;5020777;27;104057;-66
2023/09/01 05:31:37;;;;;;;2.37;2.07;;;11.60;99.90;11.80;100376.00;;;;5027408;27;109128;-66
2023/09/01 05:34:02;;;;;;;1.90;1.27;;;11.80;99.90;11.80;100378.00;;;;5023145;27;109728;-65
2023/09/01 05:36:28;;;;;;;1.30;1.20;;;11.80;99.90;11.90;100380.00;;;;5022648;27;102744;-66
2023/09/01 05:38:54;;;;;;;2.83;1.60;;;11.90;99.90;12.00;100389.00;;;;5023713;27;117443;-66
2023/09/01 05:41:19;;;;;;;5.60;1.80;;;12.00;99.90;12.10;100375.00;;;;5025825;27;111387;-65
2023/09/01 05:43:45;;;;;;;2.43;1.77;;;12.10;99.90;12.10;100381.00;;;;5026552;27;87874;-65
2023/09/01 05:46:11;;;;;;;2.40;1.80;;;12.20;99.90;12.20;100383.00;;;;5024098;27;117147;-66
2023/09/01 05:48:36;;;;;;;2.63;2.13;;;12.20;99.90;12.40;100384.00;;;;5023474;27;118146;-65
2023/09/01 05:51:03;;;;;;;2.23;1.70;;;12.30;99.90;12.50;100396.00;;;;5022403;27;88045;-66
2023/09/01 05:53:28;;;;;;;5.17;2.00;;;12.40;99.90;12.60;100404.00;;;;5025409;27;87943;-64
2023/09/01 05:55:54;;;;;;;2.30;1.40;;;12.50;99.90;12.80;100391.00;;;;5025919;27;117734;-66
2023/09/01 05:58:20;;;;;;;2.50;1.63;;;12.70;99.90;12.90;100400.00;;;;5012845;27;106691;-65
2023/09/01 06:00:45;;;;;;;1.73;1.40;;;12.90;99.90;13.10;100399.00;;;;5024918;27;104761;-65
2023/09/01 06:03:11;;;;;;;2.70;1.90;;;13.10;99.90;13.30;100407.00;;;;5025172;27;106489;-65
2023/09/01 06:05:37;;;;;;;1.90;1.43;;;13.20;99.90;13.50;100406.00;;;;5023911;27;116522;-66
2023/09/01 06:08:03;;;;;;;3.17;2.17;;;13.40;99.90;13.60;100408.00;;;;5023282;27;116626;-66
2023/09/01 06:10:28;;;;;;;1.10;1.00;;;13.60;99.90;13.70;100415.00;;;;5031473;27;87896;-66
2023/09/01 06:12:54;;;;;;;2.17;1.50;;;13.70;99.90;13.90;100406.00;;;;5023486;27;93586;-66
2023/09/01 06:15:20;;;;;;;1.70;1.57;;;13.80;99.90;14.00;100407.00;;;;5029730;27;88246;-66
2023/09/01 06:17:45;;;;;;;1.70;1.60;;;13.90;99.90;14.20;100408.00;;;;5028025;27;117512;-66
2023/09/01 06:20:11;;;;;;;1.97;1.70;;;14.10;99.90;14.30;100414.00;;;;5023425;27;109963;-66
2023/09/01 06:22:37;;;;;;;1.60;1.50;;;14.30;99.90;14.50;100429.00;;;;5031584;27;87881;-66
2023/09/01 06:25:03;;;;;;;2.95;1.40;;;14.40;99.90;14.70;100417.00;;;;5032637;27;88622;-65
2023/09/01 06:27:29;;;;;;;2.95;1.85;;;14.60;99.90;14.90;100424.00;;;;5025801;27;106871;-65
2023/09/01 06:29:56;;;;;;;1.10;1.00;;;14.80;99.90;15.20;100423.00;;;;5021693;27;111148;-64
2023/09/01 06:32:23;;;;;;;3.08;1.63;;;15.10;99.90;15.30;100435.00;;;;5026118;27;87843;-67
2023/09/01 06:34:55;;;;;;;3.50;1.83;;;15.20;99.90;15.40;100436.00;;;;5018128;27;88137;-65
2023/09/01 06:37:21;;;;;;;0.98;0.98;;;15.40;99.90;15.50;100430.00;;;;5027207;27;116377;-66
2023/09/01 06:39:47;;;;;;;1.35;1.05;;;15.50;99.90;15.70;100439.00;;;;5023578;27;107714;-64
2023/09/01 06:42:12;;;;;;;1.65;1.55;;;15.60;99.90;15.80;100438.00;;;;5024742;27;100224;-65
2023/09/01 06:44:38;;;;;;;2.25;1.40;;;15.80;99.90;16.00;100439.00;;;;5021338;27;92860;-65
2023/09/01 06:47:04;;;;;;;3.03;1.33;;;15.90;99.90;16.20;100441.00;;;;5022760;27;99758;-65
2023/09/01 06:49:29;;;;;;;1.50;1.40;;;16.10;99.90;16.40;100445.00;;;;5023745;27;109503;-65
2023/09/01 06:51:58;;;;;;;1.45;1.35;;;16.30;99.90;16.60;100445.00;;;;5025002;27;107581;-64
2023/09/01 06:54:23;;;;;;;1.77;1.42;;;16.50;99.90;16.80;100449.00;;;;5025977;27;88230;-64
2023/09/01 06:56:49;;;;;;;1.90;1.15;;;16.80;99.90;17.00;100455.00;;;;5023147;27;118160;-64
2023/09/01 06:59:14;;;;;;;1.98;1.30;;;16.90;99.90;17.20;100451.00;;;;5028995;27;111028;-64
2023/09/01 07:01:40;;;;;;;1.42;1.33;;;17.10;99.90;17.50;100453.00;;;;5027260;27;108961;-63
2023/09/01 07:04:07;;;;;;;4.35;1.50;;;17.30;99.90;17.70;100455.00;;;;5023670;27;118186;-63
2023/09/01 07:06:32;;;;;;;4.80;1.60;;;17.60;99.90;18.00;100461.00;;;;5023771;27;88068;-64
2023/09/01 07:08:58;;;;;;;1.27;0.80;;;17.90;99.90;18.20;100450.00;;;;5023021;27;105804;-64
2023/09/01 07:11:24;;;;;;;7.63;1.88;;;18.10;99.90;18.40;100462.00;;;;5023093;27;108477;-65
2023/09/01 07:13:50;;;;;;;3.13;0.93;;;18.30;99.90;18.50;100455.00;;;;5027231;27;88646;-65
2023/09/01 07:16:15;;;;;;;1.92;1.40;;;18.50;99.90;18.60;100453.00;;;;5025667;27;117227;-64
2023/09/01 07:18:41;;;;;;;1.10;1.00;;;18.60;99.90;18.80;100457.00;;;;5023934;27;109312;-63
2023/09/01 07:21:07;;;;;;;3.90;1.35;;;18.70;99.90;19.00;100464.00;;;;5027474;27;88339;-65
2023/09/01 07:23:33;;;;;;;1.95;1.30;;;18.90;99.90;19.20;100479.00;;;;5006832;27;87765;-63
2023/09/01 07:25:59;;;;;;;1.23;1.13;;;19.10;99.90;19.40;100462.00;;;;5024449;27;88405;-63
2023/09/01 07:28:25;;;;;;;3.50;1.50;;;19.30;99.90;19.50;100467.00;;;;5023269;27;108199;-65
2023/09/01 07:30:53;;;;;;;2.50;1.83;;;19.40;99.90;19.60;100465.00;;;;5025010;27;91373;-64
2023/09/01 07:33:18;;;;;;;1.40;1.10;;;19.50;99.90;19.70;100469.00;;;;5022731;27;90106;-64
2023/09/01 07:35:49;;;;;;;3.95;1.65;;;19.70;99.90;19.80;100463.00;;;;5022122;27;118539;-64
2023/09/01 07:38:16;;;;;;;3.63;1.75;;;19.80;99.90;20.00;100473.00;;;;5025571;27;88192;-64
2023/09/01 07:40:43;;;;;;;1.00;0.90;;;19.90;99.90;20.20;100474.00;;;;5032498;27;98572;-64
2023/09/01 07:43:09;;;;;;;4.22;1.13;;;20.10;99.90;20.40;100476.00;;;;5030939;27;88262;-64
2023/09/01 07:45:35;;;;;;;5.47;1.05;;;20.30;99.90;20.50;100484.00;;;;5031203;27;88297;-64
2023/09/01 07:48:00;;;;;;;1.65;1.08;;;20.40;99.90;20.60;100477.00;;;;5028635;27;87999;-64
2023/09/01 07:50:30;;;;;;;1.38;1.00;;;20.60;99.90;20.80;100484.00;;;;5025281;27;107703;-64
2023/09/01 07:52:57;;;;;;;1.92;0.98;;;20.70;99.90;20.90;100479.00;;;;5024598;27;88788;-64
2023/09/01 07:55:28;;;;;;;5.00;1.67;;;20.80;99.90;21.00;100477.00;;;;5032510;27;87770;-66
2023/09/01 07:57:54;;;;;;;1.35;1.05;;;20.90;99.90;21.10;100484.00;;;;5028176;27;110450;-64
2023/09/01 08:00:20;;;;;;;2.13;0.82;;;21.00;99.90;21.00;100475.00;;;;5031074;27;108262;-65
2023/09/01 08:02:46;;;;;;;1.15;0.95;;;21.00;99.90;21.00;100469.00;;;;5033483;27;88675;-65
2023/09/01 08:05:12;;;;;;;3.65;1.38;;;21.00;99.90;21.00;100467.00;;;;5030494;27;88281;-65
2023/09/01 08:07:37;;;;;;;1.02;0.95;;;21.00;99.90;21.00;100467.00;;;;5026626;27;110327;-64
2023/09/01 08:10:04;;;;;;;2.85;1.30;;;21.00;99.90;21.00;100457.00;;;;5025252;27;109850;-65
2023/09/01 08:12:30;;;;;;;1.75;1.00;;;21.00;99.90;21.10;100465.00;;;;5029009;27;89068;-64
2023/09/01 08:14:56;;;;;;;1.83;0.88;;;21.00;99.90;21.20;100471.00;;;;5028303;27;115501;-64
2023/09/01 08:17:21;;;;;;;1.27;0.88;;;21.10;99.90;21.50;100467.00;;;;5027919;27;110965;-64
2023/09/01 08:19:48;;;;;;;1.02;1.02;;;21.30;99.90;21.50;100472.00;;;;5019382;27;110150;-64
2023/09/01 08:22:15;;;;;;;1.52;1.40;;;21.50;98.70;21.40;100470.00;;;;5027262;27;89145;-64
2023/09/01 08:24:40;;;;;;;1.73;1.02;;;21.40;98.00;21.40;100473.00;;;;5023871;27;89618;-65
2023/09/01 08:27:06;;;;;;;2.83;1.05;;;21.40;98.00;21.30;100469.00;;;;5022595;27;110008;-64
2023/09/01 08:29:32;;;;;;;1.13;1.02;;;21.30;98.50;21.40;100465.00;;;;5024156;27;109853;-65
2023/09/01 08:31:58;;;;;;;1.00;0.80;;;21.40;98.70;21.60;100468.00;;;;5025616;27;118072;-64
2023/09/01 08:34:23;;;;;;;1.98;1.02;;;21.50;98.70;21.80;100471.00;;;;5029296;27;116442;-63
2023/09/01 08:36:52;;;;;;;2.35;1.15;;;21.60;98.20;21.80;100465.00;;;;5024571;27;109542;-64
2023/09/01 08:39:18;;;;;;;3.65;0.98;;;21.70;96.80;21.90;100477.00;;;;5022850;27;108858;-64
2023/09/01 08:41:44;;;;;;;4.32;1.25;;;21.80;97.10;22.00;100481.00;;;;5025915;27;117237;-63
2023/09/01 08:44:11;;;;;;;1.48;1.00;;;21.90;96.70;22.00;100471.00;;;;5022057;27;110054;-63
2023/09/01 08:46:38;;;;;;;5.88;1.58;;;21.90;96.40;22.20;100470.00;;;;5025673;27;88810;-66
2023/09/01 08:49:04;;;;;;;1.50;0.82;;;22.00;96.10;22.20;100467.00;;;;5007708;27;107004;-65
2023/09/01 08:51:31;;;;;;;1.52;0.95;;;22.10;95.50;22.30;100470.00;;;;5007799;27;88186;-64
2023/09/01 08:53:57;;;;;;;3.28;1.15;;;22.20;94.70;22.30;100468.00;;;;5023645;27;105760;-63
2023/09/01 08:56:23;;;;;;;3.17;1.45;;;22.10;94.60;22.30;100465.00;;;;5023243;27;109931;-65
2023/09/01 08:58:49;;;;;;;1.85;1.08;;;22.10;94.40;22.30;100470.00;;;;5023765;27;87808;-64
2023/09/01 09:01:15;;;;;;;1.15;0.90;;;22.20;93.90;22.30;100470.00;;;;5022143;27;118004;-64
2023/09/01 09:03:42;;;;;;;0.88;0.80;;;22.20;93.10;22.30;100465.00;;;;5025409;27;117603;-65
2023/09/01 09:06:12;;;;;;;1.10;0.82;;;22.20;92.30;22.30;100473.00;;;;5029691;27;87677;-65
2023/09/01 09:08:38;;;;;;;3.63;1.35;;;22.10;92.60;22.20;100465.00;;;;5026539;27;87968;-65
2023/09/01 09:11:13;;;;;;;1.27;1.15;;;22.10;92.00;22.30;100461.00;;;;5026695;27;89696;-64
2023/09/01 09:13:39;;;;;;;2.03;0.80;;;22.20;91.40;22.30;100463.00;;;;5030807;27;89002;-64
2023/09/01 09:16:13;;;;;;;2.10;1.23;;;22.10;91.20;22.30;100460.00;;;;5034007;27;92717;-66
2023/09/01 09:18:42;;;;;;;2.40;1.33;;;22.10;91.10;22.30;100453.00;;;;5030381;27;88479;-64
2023/09/01 09:21:32;;;;;;;2.28;0.88;;;22.10;91.50;22.60;100456.00;;;;5028374;27;87846;-65
2023/09/01 09:24:00;;;;;;;1.13;1.02;;;22.30;91.70;22.70;100462.00;;;;5024099;27;87968;-64
2023/09/01 09:26:31;;;;;;;0.77;0.63;;;22.40;88.80;22.60;100463.00;;;;5024629;27;88212;-64
2023/09/01 09:29:10;;;;;;;2.55;1.08;;;22.40;88.00;22.60;100469.00;;;;5022903;27;87263;-63
2023/09/01 09:31:39;;;;;;;1.30;0.98;;;22.40;87.40;22.50;100467.00;;;;5022716;27;88799;-63
2023/09/01 09:34:20;;;;;;;0.88;0.88;;;22.30;86.20;22.40;100475.00;;;;5023548;27;88827;-62
2023/09/01 09:36:51;;;;;;;1.02;0.65;;;22.30;87.20;22.40;100457.00;;;;5023410;27;88353;-64
2023/09/01 09:39:30;;;;;;;1.70;0.98;;;22.20;87.60;22.60;100462.00;;;;5024008;27;87753;-64
2023/09/01 09:41:59;;;;;;;1.02;0.80;;;22.30;88.50;22.70;100476.00;;;;5026319;27;88098;-64
2023/09/01 09:44:33;;;;;;;2.83;1.25;;;22.40;88.00;22.80;100470.00;;;;5023987;27;87493;-64
2023/09/01 09:47:01;;;;;;;3.83;0.98;;;22.50;88.10;23.00;100471.00;;;;5023099;27;87932;-63
2023/09/01 09:49:31;;;;;;;2.15;1.30;;;22.70;88.30;23.20;100470.00;;;;5027287;27;87778;-63
2023/09/01 09:52:00;;;;;;;1.25;0.73;;;22.80;86.70;23.30;100483.00;;;;5025365;27;88829;-64
2023/09/01 09:54:29;;;;;;;0.77;0.75;;;23.00;84.00;23.20;100474.00;;;;5033656;27;92093;-64
2023/09/01 09:56:57;;;;;;;2.63;1.45;;;22.90;82.90;23.20;100482.00;;;;5034882;27;88142;-64
2023/09/01 10:00:10;;;;;;;3.08;1.23;;;22.90;83.40;23.30;100476.00;;;;5034157;27;87648;-63
2023/09/01 10:03:03;;;;;;;2.03;0.98;;;22.90;83.20;23.30;100479.00;;;;4997336;27;88724;-65
2023/09/01 10:05:32;;;;;;;4.20;1.35;;;23.00;82.70;23.50;100484.00;;;;5024962;27;89023;-64
2023/09/01 10:08:02;;;;;;;1.15;1.00;;;23.10;82.60;23.70;100460.00;;;;5028789;27;87990;-65
2023/09/01 10:10:28;;;;;;;0.90;0.85;;;23.30;82.50;24.00;100475.00;;;;5010569;27;87945;-64
2023/09/01 10:12:54;;;;;;;3.42;1.05;;;23.50;81.70;24.10;100473.00;;;;5006172;27;117447;-64
2023/09/01 10:15:26;;;;;;;2.08;1.23;;;23.60;78.20;24.20;100476.00;;;;5006639;27;116798;-65
2023/09/01 10:17:53;;;;;;;2.75;1.33;;;23.70;78.90;24.40;100479.00;;;;5025008;27;110896;-65
2023/09/01 10:20:18;;;;;;;1.60;1.00;;;23.90;80.00;24.70;100464.00;;;;5022897;27;87334;-66
2023/09/01 10:22:44;;;;;;;1.10;1.00;;;24.20;79.20;24.80;100473.00;;;;5004770;27;88329;-65
2023/09/01 10:25:19;;;;;;;7.20;0.93;;;24.40;77.80;24.90;100472.00;;;;5023650;27;116388;-65
2023/09/01 10:28:13;;;;;;;1.60;0.95;;;24.40;76.90;25.10;100472.00;;;;5025514;27;88728;-66
2023/09/01 10:30:44;;;;;;;4.90;1.23;;;24.60;75.10;25.40;100467.00;;;;5025476;27;87843;-66
2023/09/01 10:33:24;;;;;;;2.80;1.52;;;24.90;75.60;25.80;100467.00;;;;5021759;27;89005;-65
2023/09/01 10:35:55;;;;;;;5.43;1.30;;;25.20;75.10;26.10;100469.00;;;;5028197;27;88384;-65
2023/09/01 10:38:33;;;;;;;1.02;0.93;;;25.50;72.80;26.00;100455.00;;;;5026336;27;87527;-64
2023/09/01 10:40:59;;;;;;;1.33;0.80;;;25.60;67.60;25.90;100461.00;;;;5004707;27;93944;-66
2023/09/01 10:43:34;;;;;;;2.08;1.08;;;25.60;67.30;25.80;100459.00;;;;5022705;27;102696;-66
2023/09/01 10:46:15;;;;;;;2.92;1.10;;;25.50;67.60;25.80;100454.00;;;;5025110;27;88893;-67
2023/09/01 10:49:04;;;;;;;1.25;0.80;;;25.50;65.50;25.70;100450.00;;;;5023864;27;87790;-64
2023/09/01 10:51:39;;;;;;;1.92;0.90;;;25.40;64.30;25.50;100456.00;;;;5007269;27;87908;-66